sensor_id;sensor_type;location;lat;lon;timestamp;P1;durP1;ratioP1;P2;durP2;ratioP2
23768;SDS011;12064;50.890;5.424;2022-12-18T00:06:13;18.20;;;16.80;;
23768;SDS011;12064;50.890;5.424;2022-12-18T00:24:38;18.42;;;17.02;;
23768;SDS011;12064;50.890;5.424;2022-12-18T00:33:29;17.80;;;16.40;;
23768;SDS011;12064;50.890;5.424;2022-12-18T00:42:23;18.98;;;17.48;;
23768;SDS011;12064;50.890;5.424;2022-12-18T00:51:32;18.92;;;17.48;;
23768;SDS011;12064;50.890;5.424;2022-12-18T01:00:23;19.10;;;17.60;;
23768;SDS011;12064;50.890;5.424;2022-12-18T01:09:13;19.48;;;17.88;;
23768;SDS011;12064;50.890;5.424;2022-12-18T01:27:01;18.25;;;16.77;;
23768;SDS011;12064;50.890;5.424;2022-12-18T01:35:54;18.80;;;17.40;;
23768;SDS011;12064;50.890;5.424;2022-12-18T01:44:55;18.52;;;17.02;;
23768;SDS011;12064;50.890;5.424;2022-12-18T01:53:55;17.97;;;16.57;;
23768;SDS011;12064;50.890;5.424;2022-12-18T02:02:47;17.67;;;16.38;;
23768;SDS011;12064;50.890;5.424;2022-12-18T02:21:18;18.37;;;16.97;;
23768;SDS011;12064;50.890;5.424;2022-12-18T02:30:29;18.00;;;16.70;;
23768;SDS011;12064;50.890;5.424;2022-12-18T02:39:23;17.80;;;16.50;;
23768;SDS011;12064;50.890;5.424;2022-12-18T02:48:17;18.10;;;16.70;;
23768;SDS011;12064;50.890;5.424;2022-12-18T02:57:20;17.52;;;16.20;;
23768;SDS011;12064;50.890;5.424;2022-12-18T03:06:46;17.60;;;16.30;;
23768;SDS011;12064;50.890;5.424;2022-12-18T03:24:38;17.30;;;16.00;;
23768;SDS011;12064;50.890;5.424;2022-12-18T03:34:16;16.90;;;15.60;;
23768;SDS011;12064;50.890;5.424;2022-12-18T03:42:49;16.40;;;15.20;;
23768;SDS011;12064;50.890;5.424;2022-12-18T03:51:50;16.88;;;15.60;;
23768;SDS011;12064;50.890;5.424;2022-12-18T04:00:52;16.75;;;15.52;;
23768;SDS011;12064;50.890;5.424;2022-12-18T04:09:46;16.77;;;15.50;;
23768;SDS011;12064;50.890;5.424;2022-12-18T04:18:45;16.15;;;14.95;;
23768;SDS011;12064;50.890;5.424;2022-12-18T04:27:35;16.05;;;14.85;;
23768;SDS011;12064;50.890;5.424;2022-12-18T04:36:28;16.10;;;14.90;;
23768;SDS011;12064;50.890;5.424;2022-12-18T04:45:19;15.82;;;14.63;;
23768;SDS011;12064;50.890;5.424;2022-12-18T05:03:23;15.52;;;14.32;;
23768;SDS011;12064;50.890;5.424;2022-12-18T05:12:16;15.38;;;14.20;;
23768;SDS011;12064;50.890;5.424;2022-12-18T05:21:07;15.30;;;14.10;;
23768;SDS011;12064;50.890;5.424;2022-12-18T05:29:58;15.20;;;14.00;;
23768;SDS011;12064;50.890;5.424;2022-12-18T05:38:51;14.18;;;13.13;;
23768;SDS011;12064;50.890;5.424;2022-12-18T05:47:42;14.43;;;13.33;;
23768;SDS011;12064;50.890;5.424;2022-12-18T05:56:35;14.60;;;13.50;;
23768;SDS011;12064;50.890;5.424;2022-12-18T06:05:26;14.32;;;13.23;;
23768;SDS011;12064;50.890;5.424;2022-12-18T06:23:40;14.05;;;13.02;;
23768;SDS011;12064;50.890;5.424;2022-12-18T06:41:29;13.40;;;12.40;;
23768;SDS011;12064;50.890;5.424;2022-12-18T07:08:51;13.32;;;12.32;;
23768;SDS011;12064;50.890;5.424;2022-12-18T07:27:17;13.20;;;12.20;;
23768;SDS011;12064;50.890;5.424;2022-12-18T07:36:08;12.55;;;11.55;;
23768;SDS011;12064;50.890;5.424;2022-12-18T07:45:00;12.80;;;11.80;;
23768;SDS011;12064;50.890;5.424;2022-12-18T07:53:52;12.32;;;11.43;;
23768;SDS011;12064;50.890;5.424;2022-12-18T08:02:42;12.13;;;11.23;;
23768;SDS011;12064;50.890;5.424;2022-12-18T08:11:33;11.73;;;10.83;;
23768;SDS011;12064;50.890;5.424;2022-12-18T08:20:25;12.00;;;11.10;;
23768;SDS011;12064;50.890;5.424;2022-12-18T08:29:15;11.50;;;10.60;;
23768;SDS011;12064;50.890;5.424;2022-12-18T08:38:06;11.13;;;10.33;;
23768;SDS011;12064;50.890;5.424;2022-12-18T08:46:57;11.17;;;10.37;;
23768;SDS011;12064;50.890;5.424;2022-12-18T08:55:48;11.10;;;10.30;;
23768;SDS011;12064;50.890;5.424;2022-12-18T09:04:39;10.82;;;10.02;;
23768;SDS011;12064;50.890;5.424;2022-12-18T09:13:30;11.10;;;10.10;;
23768;SDS011;12064;50.890;5.424;2022-12-18T09:22:20;10.57;;;9.77;;
23768;SDS011;12064;50.890;5.424;2022-12-18T09:31:14;10.50;;;9.70;;
23768;SDS011;12064;50.890;5.424;2022-12-18T09:40:12;10.30;;;9.60;;
23768;SDS011;12064;50.890;5.424;2022-12-18T09:49:11;10.07;;;9.38;;
23768;SDS011;12064;50.890;5.424;2022-12-18T10:35:33;9.35;;;8.65;;
23768;SDS011;12064;50.890;5.424;2022-12-18T10:44:28;10.13;;;9.32;;
23768;SDS011;12064;50.890;5.424;2022-12-18T10:53:23;9.90;;;9.10;;
23768;SDS011;12064;50.890;5.424;2022-12-18T11:02:25;8.93;;;8.23;;
23768;SDS011;12064;50.890;5.424;2022-12-18T11:11:20;9.38;;;8.57;;
23768;SDS011;12064;50.890;5.424;2022-12-18T11:20:32;9.27;;;8.57;;
23768;SDS011;12064;50.890;5.424;2022-12-18T11:29:36;9.63;;;8.88;;
23768;SDS011;12064;50.890;5.424;2022-12-18T11:38:35;8.48;;;7.88;;
23768;SDS011;12064;50.890;5.424;2022-12-18T12:25:18;7.88;;;7.28;;
23768;SDS011;12064;50.890;5.424;2022-12-18T12:34:34;7.93;;;7.28;;
23768;SDS011;12064;50.890;5.424;2022-12-18T12:52:40;7.63;;;6.93;;
23768;SDS011;12064;50.890;5.424;2022-12-18T13:10:48;7.32;;;6.63;;
23768;SDS011;12064;50.890;5.424;2022-12-18T13:19:39;7.47;;;6.22;;
23768;SDS011;12064;50.890;5.424;2022-12-18T13:47:33;6.70;;;6.20;;
23768;SDS011;12064;50.890;5.424;2022-12-18T13:56:28;6.97;;;6.47;;
23768;SDS011;12064;50.890;5.424;2022-12-18T14:05:27;6.72;;;6.22;;
23768;SDS011;12064;50.890;5.424;2022-12-18T14:14:27;7.28;;;6.68;;
23768;SDS011;12064;50.890;5.424;2022-12-18T14:32:31;6.60;;;6.10;;
23768;SDS011;12064;50.890;5.424;2022-12-18T14:41:22;6.27;;;5.77;;
23768;SDS011;12064;50.890;5.424;2022-12-18T14:50:19;6.68;;;6.18;;
23768;SDS011;12064;50.890;5.424;2022-12-18T15:08:25;6.10;;;5.60;;
23768;SDS011;12064;50.890;5.424;2022-12-18T15:26:51;6.45;;;5.93;;
23768;SDS011;12064;50.890;5.424;2022-12-18T15:35:41;6.10;;;5.60;;
23768;SDS011;12064;50.890;5.424;2022-12-18T15:44:32;6.10;;;5.60;;
23768;SDS011;12064;50.890;5.424;2022-12-18T15:53:24;6.32;;;5.82;;
23768;SDS011;12064;50.890;5.424;2022-12-18T16:02:20;5.97;;;5.55;;
23768;SDS011;12064;50.890;5.424;2022-12-18T16:20:50;5.88;;;5.45;;
23768;SDS011;12064;50.890;5.424;2022-12-18T16:29:44;5.55;;;5.15;;
23768;SDS011;12064;50.890;5.424;2022-12-18T16:38:38;5.82;;;5.32;;
23768;SDS011;12064;50.890;5.424;2022-12-18T16:47:29;5.63;;;5.22;;
23768;SDS011;12064;50.890;5.424;2022-12-18T16:56:20;5.60;;;5.13;;
23768;SDS011;12064;50.890;5.424;2022-12-18T17:05:10;6.25;;;5.75;;
23768;SDS011;12064;50.890;5.424;2022-12-18T17:14:05;5.70;;;5.30;;
23768;SDS011;12064;50.890;5.424;2022-12-18T17:23:00;6.05;;;5.55;;
23768;SDS011;12064;50.890;5.424;2022-12-18T17:31:53;5.60;;;5.20;;
23768;SDS011;12064;50.890;5.424;2022-12-18T17:40:43;5.67;;;5.27;;
23768;SDS011;12064;50.890;5.424;2022-12-18T17:49:34;5.90;;;5.40;;
23768;SDS011;12064;50.890;5.424;2022-12-18T17:58:28;5.72;;;5.32;;
23768;SDS011;12064;50.890;5.424;2022-12-18T18:07:18;6.10;;;5.60;;
23768;SDS011;12064;50.890;5.424;2022-12-18T18:25:50;6.30;;;5.80;;
23768;SDS011;12064;50.890;5.424;2022-12-18T18:34:44;6.15;;;5.65;;
23768;SDS011;12064;50.890;5.424;2022-12-18T18:43:34;6.10;;;5.60;;
23768;SDS011;12064;50.890;5.424;2022-12-18T18:52:25;6.38;;;5.88;;
23768;SDS011;12064;50.890;5.424;2022-12-18T19:01:17;6.57;;;6.05;;
23768;SDS011;12064;50.890;5.424;2022-12-18T19:10:12;6.60;;;6.00;;
23768;SDS011;12064;50.890;5.424;2022-12-18T19:19:05;6.00;;;5.50;;
23768;SDS011;12064;50.890;5.424;2022-12-18T19:27:56;6.43;;;5.70;;
23768;SDS011;12064;50.890;5.424;2022-12-18T19:36:46;5.80;;;5.20;;
23768;SDS011;12064;50.890;5.424;2022-12-18T19:45:37;5.77;;;5.37;;
23768;SDS011;12064;50.890;5.424;2022-12-18T19:54:31;6.20;;;5.70;;
23768;SDS011;12064;50.890;5.424;2022-12-18T20:03:24;5.88;;;5.38;;
23768;SDS011;12064;50.890;5.424;2022-12-18T20:12:14;5.93;;;5.43;;
23768;SDS011;12064;50.890;5.424;2022-12-18T20:21:20;6.20;;;5.70;;
23768;SDS011;12064;50.890;5.424;2022-12-18T20:30:11;5.38;;;4.97;;
23768;SDS011;12064;50.890;5.424;2022-12-18T20:39:05;5.60;;;5.20;;
23768;SDS011;12064;50.890;5.424;2022-12-18T20:47:59;5.60;;;5.20;;
23768;SDS011;12064;50.890;5.424;2022-12-18T20:56:52;5.47;;;4.97;;
23768;SDS011;12064;50.890;5.424;2022-12-18T21:05:44;5.57;;;5.05;;
23768;SDS011;12064;50.890;5.424;2022-12-18T21:14:34;5.57;;;5.17;;
23768;SDS011;12064;50.890;5.424;2022-12-18T21:23:28;5.57;;;5.07;;
23768;SDS011;12064;50.890;5.424;2022-12-18T21:32:19;5.88;;;5.30;;
23768;SDS011;12064;50.890;5.424;2022-12-18T21:41:12;5.57;;;5.18;;
23768;SDS011;12064;50.890;5.424;2022-12-18T21:50:23;5.47;;;4.97;;
23768;SDS011;12064;50.890;5.424;2022-12-18T21:59:16;5.20;;;4.80;;
23768;SDS011;12064;50.890;5.424;2022-12-18T22:08:08;5.30;;;4.80;;
23768;SDS011;12064;50.890;5.424;2022-12-18T22:37:01;5.63;;;5.03;;
23768;SDS011;12064;50.890;5.424;2022-12-18T22:55:13;5.57;;;5.07;;
23768;SDS011;12064;50.890;5.424;2022-12-18T23:04:03;5.33;;;4.83;;
23768;SDS011;12064;50.890;5.424;2022-12-18T23:12:56;5.22;;;4.82;;
23768;SDS011;12064;50.890;5.424;2022-12-18T23:31:37;5.32;;;4.93;;
23768;SDS011;12064;50.890;5.424;2022-12-18T23:40:28;5.18;;;4.78;;
23768;SDS011;12064;50.890;5.424;2022-12-18T23:49:22;5.28;;;4.88;;
23768;SDS011;12064;50.890;5.424;2022-12-18T23:58:17;5.10;;;4.70;;
